Terminal Aerodrome Forecast
Issued by NWS Dodge City, KS

Home | Current Version | Previous Version | Graphics & Text | Print | Product List | Glossary Off
Versions: 1 2 3 4 5 6 7 8 9 10 11 12 13 14 15

000
FTUS43 KDDC 151700
TAFDDC
TAF
KDDC 151720Z 1518/1618 22017G27KT P6SM SKC
     FM160100 19012KT P6SM SKC
     FM160400 18015G20KT P6SM SKC
     FM161600 36020G30KT P6SM FEW250=

USA.gov is the U.S. government's official web portal to all federal, state and local government web resources and services.